sensor_id;sensor_type;location;lat;lon;timestamp;pressure;altitude;pressure_sealevel;temperature;humidity
45040;BME280;30778;53.574;7.770;2023-10-13T00:01:08;101016.13;;;11.40;60.56
45040;BME280;30778;53.574;7.770;2023-10-13T00:03:37;101017.22;;;11.35;60.27
45040;BME280;30778;53.574;7.770;2023-10-13T00:06:02;101008.66;;;11.31;60.66
45040;BME280;30778;53.574;7.770;2023-10-13T00:08:29;101008.72;;;11.30;60.89
45040;BME280;30778;53.574;7.770;2023-10-13T00:10:55;101013.56;;;11.39;60.71
45040;BME280;30778;53.574;7.770;2023-10-13T00:13:28;101001.44;;;11.16;61.32
45040;BME280;30778;53.574;7.770;2023-10-13T00:15:56;101002.50;;;11.32;61.06
45040;BME280;30778;53.574;7.770;2023-10-13T00:18:26;100999.69;;;11.37;61.11
45040;BME280;30778;53.574;7.770;2023-10-13T00:21:08;100994.66;;;11.32;61.01
45040;BME280;30778;53.574;7.770;2023-10-13T00:23:45;100988.44;;;11.35;60.76
45040;BME280;30778;53.574;7.770;2023-10-13T00:26:24;100979.88;;;11.31;61.44
45040;BME280;30778;53.574;7.770;2023-10-13T00:28:57;100983.00;;;11.39;61.15
45040;BME280;30778;53.574;7.770;2023-10-13T00:31:34;100971.44;;;11.45;61.11
45040;BME280;30778;53.574;7.770;2023-10-13T00:34:02;100960.38;;;11.38;61.08
45040;BME280;30778;53.574;7.770;2023-10-13T00:36:36;100955.00;;;11.41;61.34
45040;BME280;30778;53.574;7.770;2023-10-13T00:39:02;100953.31;;;11.40;61.41
45040;BME280;30778;53.574;7.770;2023-10-13T00:41:32;100958.31;;;11.46;61.58
45040;BME280;30778;53.574;7.770;2023-10-13T00:44:18;100961.31;;;11.58;61.33
45040;BME280;30778;53.574;7.770;2023-10-13T00:46:54;100956.13;;;11.56;61.30
45040;BME280;30778;53.574;7.770;2023-10-13T00:49:22;100953.56;;;11.55;61.30
45040;BME280;30778;53.574;7.770;2023-10-13T00:51:49;100958.16;;;11.50;61.55
45040;BME280;30778;53.574;7.770;2023-10-13T00:54:17;100954.50;;;11.54;61.19
45040;BME280;30778;53.574;7.770;2023-10-13T00:56:46;100957.13;;;11.54;61.53
45040;BME280;30778;53.574;7.770;2023-10-13T00:59:17;100944.03;;;11.54;61.60
45040;BME280;30778;53.574;7.770;2023-10-13T01:01:43;100939.50;;;11.57;61.79
45040;BME280;30778;53.574;7.770;2023-10-13T01:04:10;100936.88;;;11.57;61.70
45040;BME280;30778;53.574;7.770;2023-10-13T01:06:39;100928.66;;;11.66;61.92
45040;BME280;30778;53.574;7.770;2023-10-13T01:09:06;100928.44;;;11.71;61.88
45040;BME280;30778;53.574;7.770;2023-10-13T01:11:40;100916.66;;;11.81;61.86
45040;BME280;30778;53.574;7.770;2023-10-13T01:14:09;100921.78;;;11.84;62.10
45040;BME280;30778;53.574;7.770;2023-10-13T01:16:39;100918.09;;;11.88;61.75
45040;BME280;30778;53.574;7.770;2023-10-13T01:19:15;100903.31;;;11.87;61.58
45040;BME280;30778;53.574;7.770;2023-10-13T01:21:47;100899.13;;;11.83;61.81
45040;BME280;30778;53.574;7.770;2023-10-13T01:24:14;100907.75;;;11.85;61.81
45040;BME280;30778;53.574;7.770;2023-10-13T01:26:40;100897.91;;;11.91;61.96
45040;BME280;30778;53.574;7.770;2023-10-13T01:29:08;100904.41;;;11.82;62.22
45040;BME280;30778;53.574;7.770;2023-10-13T01:31:44;100902.38;;;11.88;62.02
45040;BME280;30778;53.574;7.770;2023-10-13T01:34:15;100897.91;;;11.91;62.20
45040;BME280;30778;53.574;7.770;2023-10-13T01:36:53;100891.78;;;11.92;62.27
45040;BME280;30778;53.574;7.770;2023-10-13T01:39:20;100898.59;;;11.96;62.36
45040;BME280;30778;53.574;7.770;2023-10-13T01:41:46;100891.34;;;12.01;62.36
45040;BME280;30778;53.574;7.770;2023-10-13T01:44:19;100887.03;;;12.00;62.27
45040;BME280;30778;53.574;7.770;2023-10-13T01:46:45;100883.44;;;12.02;62.40
45040;BME280;30778;53.574;7.770;2023-10-13T01:49:11;100876.22;;;12.07;62.41
45040;BME280;30778;53.574;7.770;2023-10-13T01:51:36;100871.41;;;11.98;62.50
45040;BME280;30778;53.574;7.770;2023-10-13T01:54:05;100866.00;;;12.20;62.17
45040;BME280;30778;53.574;7.770;2023-10-13T01:56:37;100867.41;;;12.27;62.30
45040;BME280;30778;53.574;7.770;2023-10-13T01:59:08;100862.19;;;12.27;62.49
45040;BME280;30778;53.574;7.770;2023-10-13T02:01:37;100859.28;;;12.34;62.46
45040;BME280;30778;53.574;7.770;2023-10-13T02:04:03;100854.59;;;12.40;62.56
45040;BME280;30778;53.574;7.770;2023-10-13T02:06:30;100844.78;;;12.44;62.43
45040;BME280;30778;53.574;7.770;2023-10-13T02:09:05;100848.34;;;12.43;62.40
45040;BME280;30778;53.574;7.770;2023-10-13T02:11:52;100840.16;;;12.49;62.48
45040;BME280;30778;53.574;7.770;2023-10-13T02:14:22;100837.25;;;12.55;62.52
45040;BME280;30778;53.574;7.770;2023-10-13T02:16:48;100835.16;;;12.62;62.56
45040;BME280;30778;53.574;7.770;2023-10-13T02:19:16;100831.63;;;12.63;62.41
45040;BME280;30778;53.574;7.770;2023-10-13T02:21:45;100832.22;;;12.69;62.38
45040;BME280;30778;53.574;7.770;2023-10-13T02:24:11;100830.47;;;12.68;62.81
45040;BME280;30778;53.574;7.770;2023-10-13T02:26:44;100822.03;;;12.81;62.67
45040;BME280;30778;53.574;7.770;2023-10-13T02:29:10;100814.72;;;12.87;62.37
45040;BME280;30778;53.574;7.770;2023-10-13T02:31:42;100808.94;;;12.81;63.02
45040;BME280;30778;53.574;7.770;2023-10-13T02:34:09;100804.59;;;12.80;63.23
45040;BME280;30778;53.574;7.770;2023-10-13T02:36:40;100795.28;;;12.92;62.78
45040;BME280;30778;53.574;7.770;2023-10-13T02:39:18;100791.09;;;12.87;63.33
45040;BME280;30778;53.574;7.770;2023-10-13T02:41:52;100792.41;;;12.96;63.07
45040;BME280;30778;53.574;7.770;2023-10-13T02:44:21;100790.56;;;12.98;62.84
45040;BME280;30778;53.574;7.770;2023-10-13T02:46:54;100785.13;;;13.01;63.35
45040;BME280;30778;53.574;7.770;2023-10-13T02:49:27;100782.88;;;13.11;63.04
45040;BME280;30778;53.574;7.770;2023-10-13T02:51:56;100789.38;;;13.04;63.07
45040;BME280;30778;53.574;7.770;2023-10-13T02:54:25;100786.19;;;13.15;62.82
45040;BME280;30778;53.574;7.770;2023-10-13T02:56:55;100776.78;;;13.10;63.48
45040;BME280;30778;53.574;7.770;2023-10-13T02:59:30;100770.97;;;13.21;63.10
45040;BME280;30778;53.574;7.770;2023-10-13T03:02:13;100763.94;;;13.22;62.98
45040;BME280;30778;53.574;7.770;2023-10-13T03:04:52;100765.25;;;13.30;62.83
45040;BME280;30778;53.574;7.770;2023-10-13T03:07:26;100758.88;;;13.19;63.26
45040;BME280;30778;53.574;7.770;2023-10-13T03:09:57;100762.41;;;13.18;63.21
45040;BME280;30778;53.574;7.770;2023-10-13T03:12:26;100763.88;;;13.23;63.40
45040;BME280;30778;53.574;7.770;2023-10-13T03:14:58;100750.19;;;13.34;63.01
45040;BME280;30778;53.574;7.770;2023-10-13T03:17:40;100750.97;;;13.36;63.04
45040;BME280;30778;53.574;7.770;2023-10-13T03:20:13;100740.88;;;13.44;62.78
45040;BME280;30778;53.574;7.770;2023-10-13T03:22:41;100748.28;;;13.20;64.23
45040;BME280;30778;53.574;7.770;2023-10-13T03:25:13;100745.63;;;13.04;64.44
45040;BME280;30778;53.574;7.770;2023-10-13T03:27:51;100751.09;;;13.33;63.87
45040;BME280;30778;53.574;7.770;2023-10-13T03:30:17;100755.47;;;13.17;64.14
45040;BME280;30778;53.574;7.770;2023-10-13T03:32:43;100746.94;;;12.96;65.24
45040;BME280;30778;53.574;7.770;2023-10-13T03:35:20;100740.00;;;13.28;64.22
45040;BME280;30778;53.574;7.770;2023-10-13T03:37:54;100744.44;;;13.43;63.70
45040;BME280;30778;53.574;7.770;2023-10-13T03:40:23;100733.16;;;13.41;63.63
45040;BME280;30778;53.574;7.770;2023-10-13T03:42:53;100729.34;;;13.31;64.02
45040;BME280;30778;53.574;7.770;2023-10-13T03:45:41;100725.66;;;13.18;64.58
45040;BME280;30778;53.574;7.770;2023-10-13T03:48:16;100714.47;;;13.47;63.99
45040;BME280;30778;53.574;7.770;2023-10-13T03:50:52;100707.53;;;13.62;63.46
45040;BME280;30778;53.574;7.770;2023-10-13T03:53:37;100710.28;;;13.61;63.32
45040;BME280;30778;53.574;7.770;2023-10-13T03:56:25;100695.47;;;13.42;64.45
45040;BME280;30778;53.574;7.770;2023-10-13T03:58:56;100685.81;;;13.43;64.15
45040;BME280;30778;53.574;7.770;2023-10-13T04:01:32;100692.00;;;13.42;64.66
45040;BME280;30778;53.574;7.770;2023-10-13T04:04:16;100682.22;;;13.61;63.75
45040;BME280;30778;53.574;7.770;2023-10-13T04:06:55;100685.16;;;13.71;63.48
45040;BME280;30778;53.574;7.770;2023-10-13T04:09:35;100676.38;;;13.72;63.51
45040;BME280;30778;53.574;7.770;2023-10-13T04:12:05;100677.81;;;13.62;64.01
45040;BME280;30778;53.574;7.770;2023-10-13T04:14:35;100669.66;;;13.66;63.71
45040;BME280;30778;53.574;7.770;2023-10-13T04:17:10;100664.50;;;13.65;63.85
45040;BME280;30778;53.574;7.770;2023-10-13T04:19:48;100654.34;;;13.75;63.52
45040;BME280;30778;53.574;7.770;2023-10-13T04:22:33;100648.91;;;13.62;64.01
45040;BME280;30778;53.574;7.770;2023-10-13T04:25:28;100637.88;;;13.71;63.62
45040;BME280;30778;53.574;7.770;2023-10-13T04:28:14;100627.56;;;13.68;63.70
45040;BME280;30778;53.574;7.770;2023-10-13T04:30:51;100623.69;;;13.59;63.96
45040;BME280;30778;53.574;7.770;2023-10-13T04:33:27;100614.00;;;13.76;63.57
45040;BME280;30778;53.574;7.770;2023-10-13T04:36:13;100610.78;;;13.55;64.17
45040;BME280;30778;53.574;7.770;2023-10-13T04:38:48;100605.53;;;13.55;63.94
45040;BME280;30778;53.574;7.770;2023-10-13T04:41:34;100597.06;;;13.49;64.55
45040;BME280;30778;53.574;7.770;2023-10-13T04:44:13;100590.28;;;13.77;63.55
45040;BME280;30778;53.574;7.770;2023-10-13T04:46:47;100592.31;;;13.72;63.74
45040;BME280;30778;53.574;7.770;2023-10-13T04:49:13;100579.75;;;13.77;63.45
45040;BME280;30778;53.574;7.770;2023-10-13T04:52:00;100567.81;;;13.71;63.65
45040;BME280;30778;53.574;7.770;2023-10-13T04:54:37;100567.25;;;13.66;63.99
45040;BME280;30778;53.574;7.770;2023-10-13T04:57:16;100562.56;;;13.56;64.70
45040;BME280;30778;53.574;7.770;2023-10-13T05:00:16;100552.75;;;13.75;63.88
45040;BME280;30778;53.574;7.770;2023-10-13T05:02:47;100554.25;;;13.79;63.73
45040;BME280;30778;53.574;7.770;2023-10-13T05:05:31;100539.97;;;13.69;64.17
45040;BME280;30778;53.574;7.770;2023-10-13T05:08:31;100541.38;;;13.28;65.49
45040;BME280;30778;53.574;7.770;2023-10-13T05:11:23;100530.00;;;13.60;64.78
45040;BME280;30778;53.574;7.770;2023-10-13T05:14:07;100524.03;;;13.72;64.05
45040;BME280;30778;53.574;7.770;2023-10-13T05:16:51;100517.06;;;13.57;64.41
45040;BME280;30778;53.574;7.770;2023-10-13T05:19:36;100509.31;;;13.53;65.06
45040;BME280;30778;53.574;7.770;2023-10-13T05:22:19;100504.56;;;13.60;64.75
45040;BME280;30778;53.574;7.770;2023-10-13T05:25:04;100493.72;;;13.66;64.34
45040;BME280;30778;53.574;7.770;2023-10-13T05:27:48;100495.78;;;13.61;64.31
45040;BME280;30778;53.574;7.770;2023-10-13T05:30:32;100486.31;;;13.59;65.39
45040;BME280;30778;53.574;7.770;2023-10-13T05:33:16;100488.50;;;13.50;65.32
45040;BME280;30778;53.574;7.770;2023-10-13T05:36:00;100483.69;;;13.59;64.96
45040;BME280;30778;53.574;7.770;2023-10-13T05:38:44;100476.28;;;13.65;64.73
45040;BME280;30778;53.574;7.770;2023-10-13T05:41:28;100460.28;;;13.54;65.40
45040;BME280;30778;53.574;7.770;2023-10-13T05:44:12;100464.66;;;13.53;65.50
45040;BME280;30778;53.574;7.770;2023-10-13T05:46:57;100457.19;;;13.31;65.98
45040;BME280;30778;53.574;7.770;2023-10-13T05:49:41;100463.91;;;13.51;65.67
45040;BME280;30778;53.574;7.770;2023-10-13T05:52:18;100454.25;;;13.07;67.47
45040;BME280;30778;53.574;7.770;2023-10-13T05:54:46;100452.81;;;13.32;66.40
45040;BME280;30778;53.574;7.770;2023-10-13T05:57:30;100452.50;;;13.22;66.87
45040;BME280;30778;53.574;7.770;2023-10-13T06:00:15;100453.03;;;13.43;66.21
45040;BME280;30778;53.574;7.770;2023-10-13T06:02:59;100458.63;;;13.23;66.50
45040;BME280;30778;53.574;7.770;2023-10-13T06:05:44;100454.16;;;13.39;66.08
45040;BME280;30778;53.574;7.770;2023-10-13T06:08:28;100446.06;;;13.28;66.60
45040;BME280;30778;53.574;7.770;2023-10-13T06:11:29;100433.22;;;13.38;66.21
45040;BME280;30778;53.574;7.770;2023-10-13T06:14:13;100422.16;;;13.32;66.30
45040;BME280;30778;53.574;7.770;2023-10-13T06:16:57;100402.41;;;13.56;65.22
45040;BME280;30778;53.574;7.770;2023-10-13T06:19:41;100399.38;;;13.33;66.02
45040;BME280;30778;53.574;7.770;2023-10-13T06:22:25;100384.66;;;13.45;65.75
45040;BME280;30778;53.574;7.770;2023-10-13T06:25:10;100388.72;;;13.36;66.14
45040;BME280;30778;53.574;7.770;2023-10-13T06:27:54;100380.09;;;13.48;65.44
45040;BME280;30778;53.574;7.770;2023-10-13T06:30:38;100385.16;;;13.51;65.46
45040;BME280;30778;53.574;7.770;2023-10-13T06:33:04;100385.53;;;13.45;65.87
45040;BME280;30778;53.574;7.770;2023-10-13T06:35:30;100361.16;;;13.43;65.76
45040;BME280;30778;53.574;7.770;2023-10-13T06:37:57;100360.38;;;13.27;66.01
45040;BME280;30778;53.574;7.770;2023-10-13T06:40:26;100372.94;;;13.22;66.00
45040;BME280;30778;53.574;7.770;2023-10-13T06:42:54;100376.72;;;13.32;65.92
45040;BME280;30778;53.574;7.770;2023-10-13T06:45:43;100374.78;;;13.20;66.15
45040;BME280;30778;53.574;7.770;2023-10-13T06:48:16;100379.34;;;13.32;65.92
45040;BME280;30778;53.574;7.770;2023-10-13T06:50:50;100371.31;;;13.05;66.57
45040;BME280;30778;53.574;7.770;2023-10-13T06:53:20;100369.44;;;12.77;67.96
45040;BME280;30778;53.574;7.770;2023-10-13T06:55:46;100359.22;;;12.72;67.22
45040;BME280;30778;53.574;7.770;2023-10-13T06:58:18;100370.53;;;12.41;68.34
45040;BME280;30778;53.574;7.770;2023-10-13T07:00:50;100368.63;;;12.90;66.86
45040;BME280;30778;53.574;7.770;2023-10-13T07:03:19;100366.63;;;12.80;66.98
45040;BME280;30778;53.574;7.770;2023-10-13T07:05:45;100357.44;;;13.03;65.80
45040;BME280;30778;53.574;7.770;2023-10-13T07:08:15;100365.72;;;12.81;66.54
45040;BME280;30778;53.574;7.770;2023-10-13T07:10:55;100362.16;;;13.12;65.82
45040;BME280;30778;53.574;7.770;2023-10-13T07:13:44;100366.94;;;13.20;65.59
45040;BME280;30778;53.574;7.770;2023-10-13T07:16:15;100361.63;;;12.75;66.87
45040;BME280;30778;53.574;7.770;2023-10-13T07:18:41;100353.19;;;13.00;66.31
45040;BME280;30778;53.574;7.770;2023-10-13T07:21:19;100351.88;;;12.93;66.76
45040;BME280;30778;53.574;7.770;2023-10-13T07:23:55;100352.28;;;13.16;65.92
45040;BME280;30778;53.574;7.770;2023-10-13T07:26:34;100343.31;;;13.20;65.75
45040;BME280;30778;53.574;7.770;2023-10-13T07:29:00;100333.56;;;13.07;66.20
45040;BME280;30778;53.574;7.770;2023-10-13T07:31:26;100329.78;;;13.11;66.14
45040;BME280;30778;53.574;7.770;2023-10-13T07:33:53;100328.31;;;13.07;66.03
45040;BME280;30778;53.574;7.770;2023-10-13T07:36:28;100323.22;;;13.04;66.17
45040;BME280;30778;53.574;7.770;2023-10-13T07:38:59;100323.63;;;13.27;65.58
45040;BME280;30778;53.574;7.770;2023-10-13T07:41:43;100318.16;;;13.01;66.27
45040;BME280;30778;53.574;7.770;2023-10-13T07:44:09;100303.34;;;12.86;67.13
45040;BME280;30778;53.574;7.770;2023-10-13T07:46:38;100319.28;;;12.97;66.90
45040;BME280;30778;53.574;7.770;2023-10-13T07:49:03;100307.31;;;13.07;66.42
45040;BME280;30778;53.574;7.770;2023-10-13T07:51:36;100303.78;;;13.23;66.09
45040;BME280;30778;53.574;7.770;2023-10-13T07:54:13;100298.41;;;13.24;66.31
45040;BME280;30778;53.574;7.770;2023-10-13T07:56:47;100300.75;;;13.29;66.20
45040;BME280;30778;53.574;7.770;2023-10-13T07:59:13;100303.06;;;12.60;68.98
45040;BME280;30778;53.574;7.770;2023-10-13T08:01:40;100314.38;;;12.77;68.63
45040;BME280;30778;53.574;7.770;2023-10-13T08:04:11;100286.69;;;13.01;67.87
45040;BME280;30778;53.574;7.770;2023-10-13T08:06:37;100299.13;;;12.67;69.15
45040;BME280;30778;53.574;7.770;2023-10-13T08:09:03;100298.28;;;12.83;68.72
45040;BME280;30778;53.574;7.770;2023-10-13T08:11:55;100287.66;;;12.54;69.81
45040;BME280;30778;53.574;7.770;2023-10-13T08:14:23;100280.28;;;12.91;68.77
45040;BME280;30778;53.574;7.770;2023-10-13T08:16:54;100282.63;;;12.96;68.46
45040;BME280;30778;53.574;7.770;2023-10-13T08:19:25;100287.31;;;12.90;68.30
45040;BME280;30778;53.574;7.770;2023-10-13T08:22:18;100290.06;;;13.18;67.28
45040;BME280;30778;53.574;7.770;2023-10-13T08:24:47;100270.03;;;13.17;67.36
45040;BME280;30778;53.574;7.770;2023-10-13T08:27:18;100274.44;;;13.16;67.28
45040;BME280;30778;53.574;7.770;2023-10-13T08:30:00;100268.94;;;12.76;68.75
45040;BME280;30778;53.574;7.770;2023-10-13T08:32:28;100265.16;;;13.39;66.66
45040;BME280;30778;53.574;7.770;2023-10-13T08:34:57;100261.38;;;12.86;67.80
45040;BME280;30778;53.574;7.770;2023-10-13T08:37:24;100264.41;;;13.37;66.08
45040;BME280;30778;53.574;7.770;2023-10-13T08:39:50;100255.78;;;13.21;66.50
45040;BME280;30778;53.574;7.770;2023-10-13T08:48:00;100212.53;;;13.55;65.09
45040;BME280;30778;53.574;7.770;2023-10-13T08:50:43;100206.28;;;13.43;65.42
45040;BME280;30778;53.574;7.770;2023-10-13T08:53:15;100206.28;;;13.00;66.56
45040;BME280;30778;53.574;7.770;2023-10-13T08:56:04;100194.25;;;12.67;67.17
45040;BME280;30778;53.574;7.770;2023-10-13T08:58:30;100208.56;;;13.21;66.42
45040;BME280;30778;53.574;7.770;2023-10-13T09:01:14;100196.19;;;13.08;65.78
45040;BME280;30778;53.574;7.770;2023-10-13T09:04:07;100196.38;;;13.20;65.61
45040;BME280;30778;53.574;7.770;2023-10-13T09:06:59;100183.41;;;13.60;64.45
45040;BME280;30778;53.574;7.770;2023-10-13T09:09:46;100169.53;;;13.58;64.57
45040;BME280;30778;53.574;7.770;2023-10-13T09:14:54;100161.88;;;13.11;65.90
45040;BME280;30778;53.574;7.770;2023-10-13T09:17:26;100141.63;;;13.69;64.31
45040;BME280;30778;53.574;7.770;2023-10-13T09:19:59;100136.69;;;13.50;64.49
45040;BME280;30778;53.574;7.770;2023-10-13T09:22:44;100134.94;;;13.78;64.14
45040;BME280;30778;53.574;7.770;2023-10-13T09:25:23;100133.19;;;13.91;64.09
45040;BME280;30778;53.574;7.770;2023-10-13T09:27:49;100135.66;;;14.20;63.11
45040;BME280;30778;53.574;7.770;2023-10-13T09:30:18;100133.53;;;14.00;63.74
45040;BME280;30778;53.574;7.770;2023-10-13T09:33:02;100124.34;;;14.32;62.73
45040;BME280;30778;53.574;7.770;2023-10-13T09:35:31;100116.63;;;14.04;63.40
45040;BME280;30778;53.574;7.770;2023-10-13T09:38:03;100119.91;;;14.33;62.62
45040;BME280;30778;53.574;7.770;2023-10-13T09:40:29;100114.88;;;14.17;63.17
45040;BME280;30778;53.574;7.770;2023-10-13T09:43:01;100113.16;;;14.16;63.81
45040;BME280;30778;53.574;7.770;2023-10-13T09:45:34;100109.84;;;14.40;63.18
45040;BME280;30778;53.574;7.770;2023-10-13T09:48:32;100099.88;;;14.58;62.48
45040;BME280;30778;53.574;7.770;2023-10-13T09:51:01;100089.25;;;14.59;62.79
45040;BME280;30778;53.574;7.770;2023-10-13T09:53:27;100083.34;;;14.43;62.82
45040;BME280;30778;53.574;7.770;2023-10-13T09:56:02;100069.88;;;14.60;62.64
45040;BME280;30778;53.574;7.770;2023-10-13T09:58:38;100075.56;;;14.28;63.30
45040;BME280;30778;53.574;7.770;2023-10-13T10:01:14;100072.50;;;14.60;62.59
45040;BME280;30778;53.574;7.770;2023-10-13T10:03:46;100069.03;;;14.72;62.43
45040;BME280;30778;53.574;7.770;2023-10-13T10:06:33;100062.66;;;14.88;62.20
45040;BME280;30778;53.574;7.770;2023-10-13T10:09:09;100054.69;;;14.76;62.60
45040;BME280;30778;53.574;7.770;2023-10-13T10:14:42;100057.72;;;14.83;62.59
45040;BME280;30778;53.574;7.770;2023-10-13T10:17:15;100047.75;;;15.12;61.97
45040;BME280;30778;53.574;7.770;2023-10-13T10:19:51;100050.75;;;14.58;63.63
45040;BME280;30778;53.574;7.770;2023-10-13T10:22:30;100019.28;;;15.66;61.24
45040;BME280;30778;53.574;7.770;2023-10-13T10:25:00;100051.50;;;15.58;61.04
45040;BME280;30778;53.574;7.770;2023-10-13T10:27:31;100041.13;;;15.20;62.17
45040;BME280;30778;53.574;7.770;2023-10-13T10:29:58;100037.34;;;15.59;60.96
45040;BME280;30778;53.574;7.770;2023-10-13T10:32:37;100033.84;;;15.83;60.19
45040;BME280;30778;53.574;7.770;2023-10-13T10:35:09;100035.66;;;15.82;60.52
45040;BME280;30778;53.574;7.770;2023-10-13T10:37:41;100034.41;;;16.44;58.85
45040;BME280;30778;53.574;7.770;2023-10-13T10:40:14;100024.22;;;16.06;59.92
45040;BME280;30778;53.574;7.770;2023-10-13T10:42:59;100025.72;;;15.97;60.12
45040;BME280;30778;53.574;7.770;2023-10-13T10:45:27;100030.31;;;16.06;59.43
45040;BME280;30778;53.574;7.770;2023-10-13T10:47:59;100027.13;;;16.59;58.71
45040;BME280;30778;53.574;7.770;2023-10-13T10:50:26;100002.78;;;15.28;61.20
45040;BME280;30778;53.574;7.770;2023-10-13T10:53:04;100009.69;;;15.53;61.53
45040;BME280;30778;53.574;7.770;2023-10-13T10:55:33;100025.81;;;16.42;59.35
45040;BME280;30778;53.574;7.770;2023-10-13T10:58:02;99984.28;;;16.55;58.34
45040;BME280;30778;53.574;7.770;2023-10-13T11:00:32;99995.94;;;16.30;58.79
45040;BME280;30778;53.574;7.770;2023-10-13T11:03:18;99976.78;;;16.28;59.06
45040;BME280;30778;53.574;7.770;2023-10-13T11:05:45;99970.13;;;15.66;60.39
45040;BME280;30778;53.574;7.770;2023-10-13T11:08:29;99976.91;;;15.57;61.07
45040;BME280;30778;53.574;7.770;2023-10-13T11:10:58;99980.06;;;15.74;60.75
45040;BME280;30778;53.574;7.770;2023-10-13T11:13:27;99943.69;;;16.24;58.70
45040;BME280;30778;53.574;7.770;2023-10-13T11:15:56;99941.97;;;17.12;57.51
45040;BME280;30778;53.574;7.770;2023-10-13T11:18:32;99936.63;;;16.91;57.00
45040;BME280;30778;53.574;7.770;2023-10-13T11:21:03;99940.63;;;17.17;56.16
45040;BME280;30778;53.574;7.770;2023-10-13T11:23:33;99944.81;;;16.88;56.65
45040;BME280;30778;53.574;7.770;2023-10-13T11:26:02;99917.97;;;16.71;57.88
45040;BME280;30778;53.574;7.770;2023-10-13T11:28:30;99925.75;;;16.73;56.72
45040;BME280;30778;53.574;7.770;2023-10-13T11:30:58;99920.69;;;17.13;56.13
45040;BME280;30778;53.574;7.770;2023-10-13T11:33:25;99931.03;;;16.84;56.62
45040;BME280;30778;53.574;7.770;2023-10-13T11:35:55;99923.69;;;16.88;56.60
45040;BME280;30778;53.574;7.770;2023-10-13T11:38:30;99933.31;;;16.66;57.26
45040;BME280;30778;53.574;7.770;2023-10-13T11:41:16;99925.00;;;16.38;57.34
45040;BME280;30778;53.574;7.770;2023-10-13T11:46:15;99915.25;;;17.05;55.98
45040;BME280;30778;53.574;7.770;2023-10-13T11:48:44;99905.75;;;18.17;53.83
45040;BME280;30778;53.574;7.770;2023-10-13T11:51:15;99901.81;;;18.12;53.16
45040;BME280;30778;53.574;7.770;2023-10-13T11:53:44;99895.66;;;17.71;53.58
45040;BME280;30778;53.574;7.770;2023-10-13T11:56:17;99899.19;;;17.18;54.73
45040;BME280;30778;53.574;7.770;2023-10-13T11:58:46;99900.78;;;16.88;55.28
45040;BME280;30778;53.574;7.770;2023-10-13T12:01:15;99906.44;;;17.37;54.25
45040;BME280;30778;53.574;7.770;2023-10-13T12:03:45;99911.25;;;17.11;54.91
45040;BME280;30778;53.574;7.770;2023-10-13T12:06:30;99895.56;;;16.66;55.67
45040;BME280;30778;53.574;7.770;2023-10-13T12:08:59;99888.47;;;17.10;54.95
45040;BME280;30778;53.574;7.770;2023-10-13T12:11:40;99880.16;;;17.56;53.16
45040;BME280;30778;53.574;7.770;2023-10-13T12:14:13;99890.81;;;16.92;54.12
45040;BME280;30778;53.574;7.770;2023-10-13T12:16:55;99878.06;;;16.97;54.33
45040;BME280;30778;53.574;7.770;2023-10-13T12:19:22;99869.59;;;17.14;53.46
45040;BME280;30778;53.574;7.770;2023-10-13T12:22:00;99862.63;;;17.55;52.69
45040;BME280;30778;53.574;7.770;2023-10-13T12:24:31;99895.28;;;17.33;52.83
45040;BME280;30778;53.574;7.770;2023-10-13T12:27:06;99878.00;;;17.08;53.92
45040;BME280;30778;53.574;7.770;2023-10-13T12:29:51;99843.75;;;16.21;57.17
45040;BME280;30778;53.574;7.770;2023-10-13T12:32:18;99847.56;;;15.27;56.88
45040;BME280;30778;53.574;7.770;2023-10-13T12:34:56;99859.44;;;15.44;57.46
45040;BME280;30778;53.574;7.770;2023-10-13T12:37:29;99875.63;;;16.29;56.44
45040;BME280;30778;53.574;7.770;2023-10-13T12:40:12;99867.50;;;16.10;57.21
45040;BME280;30778;53.574;7.770;2023-10-13T12:42:56;99877.19;;;15.64;58.91
45040;BME280;30778;53.574;7.770;2023-10-13T12:45:41;99858.66;;;16.11;57.92
45040;BME280;30778;53.574;7.770;2023-10-13T12:48:26;99879.22;;;15.14;60.41
45040;BME280;30778;53.574;7.770;2023-10-13T12:51:10;99870.56;;;15.47;60.78
45040;BME280;30778;53.574;7.770;2023-10-13T12:53:55;99841.97;;;16.10;59.66
45040;BME280;30778;53.574;7.770;2023-10-13T12:56:30;99848.44;;;15.95;59.57
45040;BME280;30778;53.574;7.770;2023-10-13T12:58:56;99846.78;;;15.71;59.46
45040;BME280;30778;53.574;7.770;2023-10-13T13:01:23;99856.47;;;15.48;60.32
45040;BME280;30778;53.574;7.770;2023-10-13T13:03:51;99849.78;;;15.89;58.80
45040;BME280;30778;53.574;7.770;2023-10-13T13:06:27;99849.16;;;16.08;58.62
45040;BME280;30778;53.574;7.770;2023-10-13T13:08:58;99848.94;;;15.66;59.37
45040;BME280;30778;53.574;7.770;2023-10-13T13:11:24;99865.09;;;16.18;57.67
45040;BME280;30778;53.574;7.770;2023-10-13T13:13:50;99845.47;;;15.99;58.27
45040;BME280;30778;53.574;7.770;2023-10-13T13:16:17;99859.03;;;16.50;56.54
45040;BME280;30778;53.574;7.770;2023-10-13T13:18:55;99859.34;;;16.13;57.77
45040;BME280;30778;53.574;7.770;2023-10-13T13:21:21;99851.69;;;15.65;59.18
45040;BME280;30778;53.574;7.770;2023-10-13T13:23:48;99887.59;;;15.66;58.93
45040;BME280;30778;53.574;7.770;2023-10-13T13:26:14;99876.94;;;15.90;58.27
45040;BME280;30778;53.574;7.770;2023-10-13T13:28:44;99853.84;;;15.71;59.08
45040;BME280;30778;53.574;7.770;2023-10-13T13:31:10;99859.81;;;15.62;59.26
45040;BME280;30778;53.574;7.770;2023-10-13T13:33:38;99846.97;;;14.99;60.52
45040;BME280;30778;53.574;7.770;2023-10-13T13:36:07;99857.41;;;15.36;59.99
45040;BME280;30778;53.574;7.770;2023-10-13T13:38:38;99847.25;;;15.07;60.93
45040;BME280;30778;53.574;7.770;2023-10-13T13:41:11;99854.50;;;15.28;60.13
45040;BME280;30778;53.574;7.770;2023-10-13T13:43:40;99825.09;;;15.56;59.11